sensor_id;sensor_type;location;lat;lon;timestamp;temperature;humidity
1680;DHT22;838;51.794;12.258;2023-04-10T00:02:19;8.00;6.60
1680;DHT22;838;51.794;12.258;2023-04-10T00:04:45;7.80;7.40
1680;DHT22;838;51.794;12.258;2023-04-10T00:07:13;7.70;7.10
1680;DHT22;838;51.794;12.258;2023-04-10T00:09:39;7.60;7.20
1680;DHT22;838;51.794;12.258;2023-04-10T00:12:04;7.70;7.30
1680;DHT22;838;51.794;12.258;2023-04-10T00:14:31;7.70;7.30
1680;DHT22;838;51.794;12.258;2023-04-10T00:16:56;7.70;7.20
1680;DHT22;838;51.794;12.258;2023-04-10T00:19:22;7.40;9.10
1680;DHT22;838;51.794;12.258;2023-04-10T00:21:48;7.30;9.80
1680;DHT22;838;51.794;12.258;2023-04-10T00:24:13;7.40;10.00
1680;DHT22;838;51.794;12.258;2023-04-10T00:26:40;7.40;10.00
1680;DHT22;838;51.794;12.258;2023-04-10T00:29:05;7.40;9.80
1680;DHT22;838;51.794;12.258;2023-04-10T00:31:32;7.50;9.50
1680;DHT22;838;51.794;12.258;2023-04-10T00:33:58;7.50;8.70
1680;DHT22;838;51.794;12.258;2023-04-10T00:36:23;7.60;7.90
1680;DHT22;838;51.794;12.258;2023-04-10T00:38:50;7.50;7.90
1680;DHT22;838;51.794;12.258;2023-04-10T00:41:16;7.50;8.00
1680;DHT22;838;51.794;12.258;2023-04-10T00:43:43;7.40;8.40
1680;DHT22;838;51.794;12.258;2023-04-10T00:46:09;7.40;7.90
1680;DHT22;838;51.794;12.258;2023-04-10T00:48:35;7.40;7.80
1680;DHT22;838;51.794;12.258;2023-04-10T00:51:01;7.30;7.60
1680;DHT22;838;51.794;12.258;2023-04-10T00:53:27;7.30;7.60
1680;DHT22;838;51.794;12.258;2023-04-10T00:55:54;7.20;7.10
1680;DHT22;838;51.794;12.258;2023-04-10T00:58:20;7.00;8.00
1680;DHT22;838;51.794;12.258;2023-04-10T01:00:46;6.80;8.50
1680;DHT22;838;51.794;12.258;2023-04-10T01:03:14;6.50;10.90
1680;DHT22;838;51.794;12.258;2023-04-10T01:05:50;6.20;13.10
1680;DHT22;838;51.794;12.258;2023-04-10T01:11:44;6.30;12.40
1680;DHT22;838;51.794;12.258;2023-04-10T01:14:18;6.10;12.80
1680;DHT22;838;51.794;12.258;2023-04-10T01:19:47;5.90;16.00
1680;DHT22;838;51.794;12.258;2023-04-10T01:22:20;6.10;14.90
1680;DHT22;838;51.794;12.258;2023-04-10T01:30:30;6.50;11.60
1680;DHT22;838;51.794;12.258;2023-04-10T01:32:58;6.30;10.60
1680;DHT22;838;51.794;12.258;2023-04-10T01:35:27;6.30;10.70
1680;DHT22;838;51.794;12.258;2023-04-10T01:37:54;6.10;11.60
1680;DHT22;838;51.794;12.258;2023-04-10T01:40:22;5.70;13.70
1680;DHT22;838;51.794;12.258;2023-04-10T01:42:54;5.40;16.70
1680;DHT22;838;51.794;12.258;2023-04-10T01:45:24;5.50;17.10
1680;DHT22;838;51.794;12.258;2023-04-10T01:47:51;5.70;16.20
1680;DHT22;838;51.794;12.258;2023-04-10T01:50:19;5.60;16.20
1680;DHT22;838;51.794;12.258;2023-04-10T01:52:46;5.70;15.60
1680;DHT22;838;51.794;12.258;2023-04-10T01:55:12;5.70;13.80
1680;DHT22;838;51.794;12.258;2023-04-10T01:57:38;5.30;15.70
1680;DHT22;838;51.794;12.258;2023-04-10T02:00:04;4.90;18.90
1680;DHT22;838;51.794;12.258;2023-04-10T02:02:31;4.80;20.50
1680;DHT22;838;51.794;12.258;2023-04-10T02:04:57;4.40;23.70
1680;DHT22;838;51.794;12.258;2023-04-10T02:07:53;4.30;26.80
1680;DHT22;838;51.794;12.258;2023-04-10T02:13:33;4.90;26.30
1680;DHT22;838;51.794;12.258;2023-04-10T02:16:03;5.10;25.20
1680;DHT22;838;51.794;12.258;2023-04-10T02:18:32;5.30;23.50
1680;DHT22;838;51.794;12.258;2023-04-10T02:20:59;5.50;21.40
1680;DHT22;838;51.794;12.258;2023-04-10T02:23:25;5.70;20.10
1680;DHT22;838;51.794;12.258;2023-04-10T02:25:51;5.80;19.20
1680;DHT22;838;51.794;12.258;2023-04-10T02:28:17;5.90;18.40
1680;DHT22;838;51.794;12.258;2023-04-10T02:30:42;6.00;17.50
1680;DHT22;838;51.794;12.258;2023-04-10T02:33:08;5.90;16.80
1680;DHT22;838;51.794;12.258;2023-04-10T02:35:34;5.70;17.40
1680;DHT22;838;51.794;12.258;2023-04-10T02:38:00;5.60;17.60
1680;DHT22;838;51.794;12.258;2023-04-10T02:40:26;5.60;17.40
1680;DHT22;838;51.794;12.258;2023-04-10T02:42:52;5.50;17.60
1680;DHT22;838;51.794;12.258;2023-04-10T02:45:18;5.40;17.80
1680;DHT22;838;51.794;12.258;2023-04-10T02:47:43;5.30;18.00
1680;DHT22;838;51.794;12.258;2023-04-10T02:50:09;4.90;19.40
1680;DHT22;838;51.794;12.258;2023-04-10T02:52:36;4.60;20.70
1680;DHT22;838;51.794;12.258;2023-04-10T02:55:02;4.30;21.80
1680;DHT22;838;51.794;12.258;2023-04-10T02:57:27;4.10;23.60
1680;DHT22;838;51.794;12.258;2023-04-10T02:59:53;3.70;27.50
1680;DHT22;838;51.794;12.258;2023-04-10T03:02:19;3.30;33.30
1680;DHT22;838;51.794;12.258;2023-04-10T03:04:45;3.30;38.60
1680;DHT22;838;51.794;12.258;2023-04-10T03:07:11;3.20;39.60
1680;DHT22;838;51.794;12.258;2023-04-10T03:09:37;3.10;40.50
1680;DHT22;838;51.794;12.258;2023-04-10T03:12:03;3.00;35.30
1680;DHT22;838;51.794;12.258;2023-04-10T03:14:28;2.80;35.80
1680;DHT22;838;51.794;12.258;2023-04-10T03:16:54;2.90;35.70
1680;DHT22;838;51.794;12.258;2023-04-10T03:19:20;2.90;35.20
1680;DHT22;838;51.794;12.258;2023-04-10T03:21:45;2.80;34.80
1680;DHT22;838;51.794;12.258;2023-04-10T03:24:11;2.70;36.00
1680;DHT22;838;51.794;12.258;2023-04-10T03:26:37;2.70;37.50
1680;DHT22;838;51.794;12.258;2023-04-10T03:29:03;2.80;38.70
1680;DHT22;838;51.794;12.258;2023-04-10T03:31:29;3.00;37.40
1680;DHT22;838;51.794;12.258;2023-04-10T03:33:54;3.20;36.60
1680;DHT22;838;51.794;12.258;2023-04-10T03:36:20;3.40;34.30
1680;DHT22;838;51.794;12.258;2023-04-10T03:38:46;3.70;31.30
1680;DHT22;838;51.794;12.258;2023-04-10T03:41:12;4.00;28.20
1680;DHT22;838;51.794;12.258;2023-04-10T03:43:38;4.20;26.20
1680;DHT22;838;51.794;12.258;2023-04-10T03:46:04;4.40;24.00
1680;DHT22;838;51.794;12.258;2023-04-10T03:48:30;4.50;22.90
1680;DHT22;838;51.794;12.258;2023-04-10T03:50:57;4.70;21.50
1680;DHT22;838;51.794;12.258;2023-04-10T03:53:23;4.80;20.30
1680;DHT22;838;51.794;12.258;2023-04-10T03:55:49;4.70;20.40
1680;DHT22;838;51.794;12.258;2023-04-10T03:58:17;4.50;20.30
1680;DHT22;838;51.794;12.258;2023-04-10T04:00:43;4.40;19.70
1680;DHT22;838;51.794;12.258;2023-04-10T04:03:09;4.30;20.00
1680;DHT22;838;51.794;12.258;2023-04-10T04:05:34;4.30;19.90
1680;DHT22;838;51.794;12.258;2023-04-10T04:08:00;4.30;19.40
1680;DHT22;838;51.794;12.258;2023-04-10T04:10:26;4.20;19.20
1680;DHT22;838;51.794;12.258;2023-04-10T04:12:51;4.10;20.20
1680;DHT22;838;51.794;12.258;2023-04-10T04:15:17;4.10;20.10
1680;DHT22;838;51.794;12.258;2023-04-10T04:17:43;4.20;19.60
1680;DHT22;838;51.794;12.258;2023-04-10T04:20:10;4.20;19.90
1680;DHT22;838;51.794;12.258;2023-04-10T04:22:36;4.30;19.20
1680;DHT22;838;51.794;12.258;2023-04-10T04:25:02;4.50;18.10
1680;DHT22;838;51.794;12.258;2023-04-10T04:27:32;4.60;17.70
1680;DHT22;838;51.794;12.258;2023-04-10T04:29:57;4.60;17.10
1680;DHT22;838;51.794;12.258;2023-04-10T04:32:23;4.70;16.30
1680;DHT22;838;51.794;12.258;2023-04-10T04:34:49;4.40;16.90
1680;DHT22;838;51.794;12.258;2023-04-10T04:37:15;4.30;16.80
1680;DHT22;838;51.794;12.258;2023-04-10T04:39:40;4.10;17.50
1680;DHT22;838;51.794;12.258;2023-04-10T04:42:06;3.90;18.50
1680;DHT22;838;51.794;12.258;2023-04-10T04:44:32;3.80;19.10
1680;DHT22;838;51.794;12.258;2023-04-10T04:46:57;4.00;19.20
1680;DHT22;838;51.794;12.258;2023-04-10T04:49:23;4.20;18.90
1680;DHT22;838;51.794;12.258;2023-04-10T04:51:49;4.40;19.90
1680;DHT22;838;51.794;12.258;2023-04-10T04:54:14;4.90;19.60
1680;DHT22;838;51.794;12.258;2023-04-10T04:56:40;5.10;17.70
1680;DHT22;838;51.794;12.258;2023-04-10T04:59:06;5.20;17.40
1680;DHT22;838;51.794;12.258;2023-04-10T05:01:32;5.60;16.50
1680;DHT22;838;51.794;12.258;2023-04-10T05:03:57;5.80;15.10
1680;DHT22;838;51.794;12.258;2023-04-10T05:06:23;6.20;14.50
1680;DHT22;838;51.794;12.258;2023-04-10T05:08:49;6.60;13.50
1680;DHT22;838;51.794;12.258;2023-04-10T05:11:14;7.00;10.00
1680;DHT22;838;51.794;12.258;2023-04-10T05:13:40;7.10;8.40
1680;DHT22;838;51.794;12.258;2023-04-10T05:16:06;7.10;7.10
1680;DHT22;838;51.794;12.258;2023-04-10T05:18:34;6.80;7.40
1680;DHT22;838;51.794;12.258;2023-04-10T05:21:00;6.40;7.30
1680;DHT22;838;51.794;12.258;2023-04-10T05:23:26;5.80;9.90
1680;DHT22;838;51.794;12.258;2023-04-10T05:25:52;5.50;11.90
1680;DHT22;838;51.794;12.258;2023-04-10T05:28:17;5.30;13.90
1680;DHT22;838;51.794;12.258;2023-04-10T05:30:43;5.20;15.40
1680;DHT22;838;51.794;12.258;2023-04-10T05:33:09;5.30;16.00
1680;DHT22;838;51.794;12.258;2023-04-10T05:35:34;5.40;16.30
1680;DHT22;838;51.794;12.258;2023-04-10T05:38:00;5.80;16.00
1680;DHT22;838;51.794;12.258;2023-04-10T05:40:27;6.00;14.50
1680;DHT22;838;51.794;12.258;2023-04-10T05:42:53;6.00;15.50
1680;DHT22;838;51.794;12.258;2023-04-10T05:45:19;6.20;16.50
1680;DHT22;838;51.794;12.258;2023-04-10T05:47:44;6.90;16.60
1680;DHT22;838;51.794;12.258;2023-04-10T05:50:10;7.90;14.20
1680;DHT22;838;51.794;12.258;2023-04-10T05:52:36;8.90;10.20
1680;DHT22;838;51.794;12.258;2023-04-10T05:55:02;9.90;7.40
1680;DHT22;838;51.794;12.258;2023-04-10T05:57:28;10.30;4.30
1680;DHT22;838;51.794;12.258;2023-04-10T05:59:54;10.70;3.10
1680;DHT22;838;51.794;12.258;2023-04-10T06:02:20;10.60;2.60
1680;DHT22;838;51.794;12.258;2023-04-10T06:04:46;10.90;2.20
1680;DHT22;838;51.794;12.258;2023-04-10T06:07:12;11.40;1.00
1680;DHT22;838;51.794;12.258;2023-04-10T06:09:37;12.00;1.00
1680;DHT22;838;51.794;12.258;2023-04-10T06:12:03;12.30;1.00
1680;DHT22;838;51.794;12.258;2023-04-10T06:14:29;12.50;1.00
1680;DHT22;838;51.794;12.258;2023-04-10T06:16:55;13.10;1.00
1680;DHT22;838;51.794;12.258;2023-04-10T06:19:20;13.90;1.00
1680;DHT22;838;51.794;12.258;2023-04-10T06:21:46;15.00;1.00
1680;DHT22;838;51.794;12.258;2023-04-10T06:24:12;15.70;1.00
1680;DHT22;838;51.794;12.258;2023-04-10T06:26:38;16.40;1.00
1680;DHT22;838;51.794;12.258;2023-04-10T06:29:04;17.20;1.00
1680;DHT22;838;51.794;12.258;2023-04-10T06:31:32;17.50;1.00
1680;DHT22;838;51.794;12.258;2023-04-10T06:33:58;18.10;1.00
1680;DHT22;838;51.794;12.258;2023-04-10T06:36:24;18.30;1.00
1680;DHT22;838;51.794;12.258;2023-04-10T06:38:51;18.00;1.00
1680;DHT22;838;51.794;12.258;2023-04-10T06:41:17;17.40;1.00
1680;DHT22;838;51.794;12.258;2023-04-10T06:43:42;16.80;1.00
1680;DHT22;838;51.794;12.258;2023-04-10T06:46:10;16.20;1.00
1680;DHT22;838;51.794;12.258;2023-04-10T06:48:36;14.60;1.00
1680;DHT22;838;51.794;12.258;2023-04-10T06:51:02;13.40;1.00
1680;DHT22;838;51.794;12.258;2023-04-10T06:53:28;12.80;1.00
1680;DHT22;838;51.794;12.258;2023-04-10T06:55:55;12.10;1.00
1680;DHT22;838;51.794;12.258;2023-04-10T06:58:21;11.20;1.00
1680;DHT22;838;51.794;12.258;2023-04-10T07:00:46;11.10;1.10
1680;DHT22;838;51.794;12.258;2023-04-10T07:03:12;11.50;1.20
1680;DHT22;838;51.794;12.258;2023-04-10T07:05:38;11.30;1.00
1680;DHT22;838;51.794;12.258;2023-04-10T07:08:03;11.70;1.00
1680;DHT22;838;51.794;12.258;2023-04-10T07:10:29;11.40;1.00
1680;DHT22;838;51.794;12.258;2023-04-10T07:12:55;10.70;1.60
1680;DHT22;838;51.794;12.258;2023-04-10T07:15:23;10.40;6.70
1680;DHT22;838;51.794;12.258;2023-04-10T07:17:49;10.50;7.90
1680;DHT22;838;51.794;12.258;2023-04-10T07:20:14;11.00;4.90
1680;DHT22;838;51.794;12.258;2023-04-10T07:22:40;11.60;4.20
1680;DHT22;838;51.794;12.258;2023-04-10T07:25:06;12.20;1.00
1680;DHT22;838;51.794;12.258;2023-04-10T07:27:32;12.50;1.00
1680;DHT22;838;51.794;12.258;2023-04-10T07:29:58;12.70;1.00
1680;DHT22;838;51.794;12.258;2023-04-10T07:32:24;13.10;1.00
1680;DHT22;838;51.794;12.258;2023-04-10T07:34:50;13.00;1.00
1680;DHT22;838;51.794;12.258;2023-04-10T07:37:16;13.10;1.00
1680;DHT22;838;51.794;12.258;2023-04-10T07:39:42;12.90;1.00
1680;DHT22;838;51.794;12.258;2023-04-10T07:42:09;13.20;1.00
1680;DHT22;838;51.794;12.258;2023-04-10T07:44:35;12.80;1.00
1680;DHT22;838;51.794;12.258;2023-04-10T07:47:02;12.80;2.10
1680;DHT22;838;51.794;12.258;2023-04-10T07:49:28;12.90;1.00
1680;DHT22;838;51.794;12.258;2023-04-10T07:51:54;12.90;1.00
1680;DHT22;838;51.794;12.258;2023-04-10T07:54:20;12.80;1.00
1680;DHT22;838;51.794;12.258;2023-04-10T07:56:45;13.10;1.00
1680;DHT22;838;51.794;12.258;2023-04-10T07:59:11;13.30;1.00
1680;DHT22;838;51.794;12.258;2023-04-10T08:01:37;13.60;1.00
1680;DHT22;838;51.794;12.258;2023-04-10T08:04:03;13.90;1.00
1680;DHT22;838;51.794;12.258;2023-04-10T08:06:29;14.00;1.00
1680;DHT22;838;51.794;12.258;2023-04-10T08:08:56;14.50;1.00
1680;DHT22;838;51.794;12.258;2023-04-10T08:11:27;15.10;1.00
1680;DHT22;838;51.794;12.258;2023-04-10T08:13:54;16.20;1.00
1680;DHT22;838;51.794;12.258;2023-04-10T08:16:25;16.20;1.00
1680;DHT22;838;51.794;12.258;2023-04-10T08:18:54;15.50;1.00
1680;DHT22;838;51.794;12.258;2023-04-10T08:21:21;15.10;1.00
1680;DHT22;838;51.794;12.258;2023-04-10T08:23:51;15.00;1.00
1680;DHT22;838;51.794;12.258;2023-04-10T08:26:17;14.60;1.00
1680;DHT22;838;51.794;12.258;2023-04-10T08:28:45;14.40;1.00
1680;DHT22;838;51.794;12.258;2023-04-10T08:31:13;14.60;1.00
1680;DHT22;838;51.794;12.258;2023-04-10T08:33:39;14.90;1.00
1680;DHT22;838;51.794;12.258;2023-04-10T08:36:07;14.80;1.00
1680;DHT22;838;51.794;12.258;2023-04-10T08:38:33;14.80;1.00
1680;DHT22;838;51.794;12.258;2023-04-10T08:40:58;15.50;1.00
1680;DHT22;838;51.794;12.258;2023-04-10T08:43:25;15.80;1.00
1680;DHT22;838;51.794;12.258;2023-04-10T08:45:51;15.80;1.00
1680;DHT22;838;51.794;12.258;2023-04-10T08:48:18;16.20;1.00
1680;DHT22;838;51.794;12.258;2023-04-10T08:50:48;16.20;1.00
1680;DHT22;838;51.794;12.258;2023-04-10T08:53:15;16.00;1.00
1680;DHT22;838;51.794;12.258;2023-04-10T08:55:43;16.20;1.00
1680;DHT22;838;51.794;12.258;2023-04-10T08:58:10;16.20;1.00
1680;DHT22;838;51.794;12.258;2023-04-10T09:00:38;16.80;1.00
1680;DHT22;838;51.794;12.258;2023-04-10T09:03:09;16.70;1.00
1680;DHT22;838;51.794;12.258;2023-04-10T09:05:36;15.90;1.00
1680;DHT22;838;51.794;12.258;2023-04-10T09:08:06;15.90;1.00
1680;DHT22;838;51.794;12.258;2023-04-10T09:10:32;16.70;1.00
1680;DHT22;838;51.794;12.258;2023-04-10T09:12:58;17.00;1.00
1680;DHT22;838;51.794;12.258;2023-04-10T09:15:24;16.40;1.00
1680;DHT22;838;51.794;12.258;2023-04-10T09:18:01;17.30;1.00
1680;DHT22;838;51.794;12.258;2023-04-10T09:20:30;18.70;1.00
1680;DHT22;838;51.794;12.258;2023-04-10T09:22:57;19.40;1.00
1680;DHT22;838;51.794;12.258;2023-04-10T09:25:35;20.10;1.00
1680;DHT22;838;51.794;12.258;2023-04-10T09:30:40;21.10;1.00
1680;DHT22;838;51.794;12.258;2023-04-10T09:33:23;20.90;1.00
1680;DHT22;838;51.794;12.258;2023-04-10T09:35:50;18.80;1.00
1680;DHT22;838;51.794;12.258;2023-04-10T09:38:20;18.60;1.00
1680;DHT22;838;51.794;12.258;2023-04-10T09:40:47;17.30;1.00
1680;DHT22;838;51.794;12.258;2023-04-10T09:43:24;17.30;1.00
1680;DHT22;838;51.794;12.258;2023-04-10T09:45:52;18.00;1.00
1680;DHT22;838;51.794;12.258;2023-04-10T09:48:18;18.30;1.00
1680;DHT22;838;51.794;12.258;2023-04-10T09:50:44;17.00;1.00
1680;DHT22;838;51.794;12.258;2023-04-10T09:53:13;16.30;1.00
1680;DHT22;838;51.794;12.258;2023-04-10T09:55:40;15.30;1.00
1680;DHT22;838;51.794;12.258;2023-04-10T09:58:07;15.40;1.00
1680;DHT22;838;51.794;12.258;2023-04-10T10:03:08;15.30;1.00
1680;DHT22;838;51.794;12.258;2023-04-10T10:05:42;15.70;1.00
1680;DHT22;838;51.794;12.258;2023-04-10T10:08:10;16.10;1.00
1680;DHT22;838;51.794;12.258;2023-04-10T10:11:13;15.60;1.00
1680;DHT22;838;51.794;12.258;2023-04-10T10:13:46;15.50;1.00
1680;DHT22;838;51.794;12.258;2023-04-10T10:16:21;15.20;1.00
1680;DHT22;838;51.794;12.258;2023-04-10T10:19:15;15.20;1.00
1680;DHT22;838;51.794;12.258;2023-04-10T10:21:43;15.30;1.00
1680;DHT22;838;51.794;12.258;2023-04-10T10:24:11;15.30;1.00
1680;DHT22;838;51.794;12.258;2023-04-10T10:26:42;15.10;1.00
1680;DHT22;838;51.794;12.258;2023-04-10T10:29:08;15.30;1.00
1680;DHT22;838;51.794;12.258;2023-04-10T10:31:39;15.60;1.00
1680;DHT22;838;51.794;12.258;2023-04-10T10:34:05;15.70;1.00
1680;DHT22;838;51.794;12.258;2023-04-10T10:36:34;15.50;1.00
1680;DHT22;838;51.794;12.258;2023-04-10T10:42:20;15.50;1.00
1680;DHT22;838;51.794;12.258;2023-04-10T10:47:37;15.80;1.00
1680;DHT22;838;51.794;12.258;2023-04-10T10:50:04;15.60;1.00
1680;DHT22;838;51.794;12.258;2023-04-10T10:52:50;15.80;1.00
1680;DHT22;838;51.794;12.258;2023-04-10T10:57:54;16.60;1.00
1680;DHT22;838;51.794;12.258;2023-04-10T11:00:24;16.80;1.00
1680;DHT22;838;51.794;12.258;2023-04-10T11:05:50;16.80;1.00
1680;DHT22;838;51.794;12.258;2023-04-10T11:08:17;16.60;1.00
1680;DHT22;838;51.794;12.258;2023-04-10T11:10:59;16.40;1.00
1680;DHT22;838;51.794;12.258;2023-04-10T11:13:28;16.20;1.00
1680;DHT22;838;51.794;12.258;2023-04-10T11:15:55;16.20;1.00
1680;DHT22;838;51.794;12.258;2023-04-10T11:21:25;16.20;1.00
1680;DHT22;838;51.794;12.258;2023-04-10T11:31:43;16.30;1.00
1680;DHT22;838;51.794;12.258;2023-04-10T11:34:10;16.50;1.00
1680;DHT22;838;51.794;12.258;2023-04-10T11:36:41;16.80;1.00
1680;DHT22;838;51.794;12.258;2023-04-10T11:39:09;17.00;1.00
1680;DHT22;838;51.794;12.258;2023-04-10T11:41:40;16.70;1.00
1680;DHT22;838;51.794;12.258;2023-04-10T11:44:08;16.70;1.00
1680;DHT22;838;51.794;12.258;2023-04-10T11:46:43;16.50;1.00
1680;DHT22;838;51.794;12.258;2023-04-10T11:49:16;16.30;1.00
1680;DHT22;838;51.794;12.258;2023-04-10T11:51:45;16.30;1.00
1680;DHT22;838;51.794;12.258;2023-04-10T11:54:19;16.70;1.00
1680;DHT22;838;51.794;12.258;2023-04-10T11:57:06;17.10;1.00
1680;DHT22;838;51.794;12.258;2023-04-10T11:59:37;17.10;1.00
1680;DHT22;838;51.794;12.258;2023-04-10T12:02:07;17.00;1.00
1680;DHT22;838;51.794;12.258;2023-04-10T12:04:34;16.50;1.00
1680;DHT22;838;51.794;12.258;2023-04-10T12:07:00;16.60;1.00
1680;DHT22;838;51.794;12.258;2023-04-10T12:09:26;16.50;1.00
1680;DHT22;838;51.794;12.258;2023-04-10T12:11:54;16.70;1.00
1680;DHT22;838;51.794;12.258;2023-04-10T12:14:21;17.10;1.00
1680;DHT22;838;51.794;12.258;2023-04-10T12:16:47;17.20;1.00
1680;DHT22;838;51.794;12.258;2023-04-10T12:19:14;17.20;1.00
1680;DHT22;838;51.794;12.258;2023-04-10T12:21:43;17.40;1.00
1680;DHT22;838;51.794;12.258;2023-04-10T12:24:10;17.10;1.00
1680;DHT22;838;51.794;12.258;2023-04-10T12:26:37;16.70;1.00
1680;DHT22;838;51.794;12.258;2023-04-10T12:29:03;16.90;1.00
1680;DHT22;838;51.794;12.258;2023-04-10T12:31:34;17.10;1.00
1680;DHT22;838;51.794;12.258;2023-04-10T12:34:02;16.90;1.00
1680;DHT22;838;51.794;12.258;2023-04-10T12:36:29;17.00;1.00
1680;DHT22;838;51.794;12.258;2023-04-10T12:38:58;17.10;1.00
1680;DHT22;838;51.794;12.258;2023-04-10T12:41:26;17.40;1.00
1680;DHT22;838;51.794;12.258;2023-04-10T12:43:52;17.60;1.00
1680;DHT22;838;51.794;12.258;2023-04-10T12:46:28;17.50;1.00
1680;DHT22;838;51.794;12.258;2023-04-10T12:48:54;17.70;1.00
1680;DHT22;838;51.794;12.258;2023-04-10T12:51:53;17.40;1.00
1680;DHT22;838;51.794;12.258;2023-04-10T12:54:32;17.00;1.00
1680;DHT22;838;51.794;12.258;2023-04-10T12:56:59;17.00;1.00
1680;DHT22;838;51.794;12.258;2023-04-10T12:59:26;17.00;1.00
1680;DHT22;838;51.794;12.258;2023-04-10T13:01:53;17.20;1.00
1680;DHT22;838;51.794;12.258;2023-04-10T13:04:19;17.40;1.00
1680;DHT22;838;51.794;12.258;2023-04-10T13:06:46;17.40;1.00
1680;DHT22;838;51.794;12.258;2023-04-10T13:09:12;17.50;1.00
1680;DHT22;838;51.794;12.258;2023-04-10T13:11:39;17.60;1.00
1680;DHT22;838;51.794;12.258;2023-04-10T13:14:05;17.60;1.00
1680;DHT22;838;51.794;12.258;2023-04-10T13:16:31;17.70;1.00
1680;DHT22;838;51.794;12.258;2023-04-10T13:18:56;17.30;1.00
1680;DHT22;838;51.794;12.258;2023-04-10T13:21:22;17.40;1.00
1680;DHT22;838;51.794;12.258;2023-04-10T13:23:51;17.50;1.00
1680;DHT22;838;51.794;12.258;2023-04-10T13:26:17;17.40;1.00
1680;DHT22;838;51.794;12.258;2023-04-10T13:28:43;17.20;1.00
1680;DHT22;838;51.794;12.258;2023-04-10T13:31:08;17.30;1.00
1680;DHT22;838;51.794;12.258;2023-04-10T13:33:35;17.20;1.00
1680;DHT22;838;51.794;12.258;2023-04-10T13:36:00;17.20;1.00
1680;DHT22;838;51.794;12.258;2023-04-10T13:38:26;17.50;1.00
1680;DHT22;838;51.794;12.258;2023-04-10T13:40:52;17.60;1.00
1680;DHT22;838;51.794;12.258;2023-04-10T13:43:18;17.40;1.00
1680;DHT22;838;51.794;12.258;2023-04-10T13:45:44;17.30;1.00
1680;DHT22;838;51.794;12.258;2023-04-10T13:48:10;17.20;1.00
1680;DHT22;838;51.794;12.258;2023-04-10T13:50:35;17.40;1.00
1680;DHT22;838;51.794;12.258;2023-04-10T13:53:01;17.30;1.00
1680;DHT22;838;51.794;12.258;2023-04-10T13:55:27;17.40;1.00
1680;DHT22;838;51.794;12.258;2023-04-10T13:57:53;17.70;1.00
1680;DHT22;838;51.794;12.258;2023-04-10T14:00:19;17.60;1.00
1680;DHT22;838;51.794;12.258;2023-04-10T14:02:46;17.50;1.00
1680;DHT22;838;51.794;12.258;2023-04-10T14:05:11;17.70;1.00
1680;DHT22;838;51.794;12.258;2023-04-10T14:07:37;17.70;1.00
1680;DHT22;838;51.794;12.258;2023-04-10T14:10:03;17.40;1.00
1680;DHT22;838;51.794;12.258;2023-04-10T14:12:29;17.20;1.00
1680;DHT22;838;51.794;12.258;2023-04-10T14:14:55;17.30;1.00
1680;DHT22;838;51.794;12.258;2023-04-10T14:17:21;17.50;1.00
1680;DHT22;838;51.794;12.258;2023-04-10T14:19:47;17.70;1.00
1680;DHT22;838;51.794;12.258;2023-04-10T14:22:16;17.80;1.00
1680;DHT22;838;51.794;12.258;2023-04-10T14:24:42;17.60;1.00
1680;DHT22;838;51.794;12.258;2023-04-10T14:27:08;17.40;1.00
1680;DHT22;838;51.794;12.258;2023-04-10T14:29:34;17.20;1.00
1680;DHT22;838;51.794;12.258;2023-04-10T14:31:59;16.90;1.00
1680;DHT22;838;51.794;12.258;2023-04-10T14:34:25;16.90;1.00
1680;DHT22;838;51.794;12.258;2023-04-10T14:36:51;16.90;1.00
1680;DHT22;838;51.794;12.258;2023-04-10T14:39:23;16.90;1.00
1680;DHT22;838;51.794;12.258;2023-04-10T14:41:49;16.90;1.00
1680;DHT22;838;51.794;12.258;2023-04-10T14:44:15;16.90;1.00
1680;DHT22;838;51.794;12.258;2023-04-10T14:46:41;16.90;1.00
1680;DHT22;838;51.794;12.258;2023-04-10T14:49:07;17.00;1.00
1680;DHT22;838;51.794;12.258;2023-04-10T14:51:33;17.00;1.00
1680;DHT22;838;51.794;12.258;2023-04-10T14:53:59;17.10;1.00
1680;DHT22;838;51.794;12.258;2023-04-10T14:56:24;17.00;1.00
1680;DHT22;838;51.794;12.258;2023-04-10T14:58:50;17.10;1.00
1680;DHT22;838;51.794;12.258;2023-04-10T15:01:16;17.10;1.00
1680;DHT22;838;51.794;12.258;2023-04-10T15:03:45;17.20;1.00
1680;DHT22;838;51.794;12.258;2023-04-10T15:06:11;17.10;1.00
1680;DHT22;838;51.794;12.258;2023-04-10T15:08:36;17.20;1.00
1680;DHT22;838;51.794;12.258;2023-04-10T15:11:02;17.30;1.00
1680;DHT22;838;51.794;12.258;2023-04-10T15:13:29;17.40;1.00
1680;DHT22;838;51.794;12.258;2023-04-10T15:15:55;17.40;1.00
1680;DHT22;838;51.794;12.258;2023-04-10T15:18:22;17.60;1.00
1680;DHT22;838;51.794;12.258;2023-04-10T15:20:50;17.60;1.00
1680;DHT22;838;51.794;12.258;2023-04-10T15:23:17;17.40;1.00
1680;DHT22;838;51.794;12.258;2023-04-10T15:25:42;17.40;1.00
1680;DHT22;838;51.794;12.258;2023-04-10T15:28:08;17.40;1.00
1680;DHT22;838;51.794;12.258;2023-04-10T15:30:34;17.30;1.00
1680;DHT22;838;51.794;12.258;2023-04-10T15:33:00;17.40;1.00
1680;DHT22;838;51.794;12.258;2023-04-10T15:35:25;17.50;1.00
1680;DHT22;838;51.794;12.258;2023-04-10T15:37:53;17.50;1.00
1680;DHT22;838;51.794;12.258;2023-04-10T15:40:18;17.40;1.00
1680;DHT22;838;51.794;12.258;2023-04-10T15:42:44;17.50;1.00
1680;DHT22;838;51.794;12.258;2023-04-10T15:45:10;17.50;1.00
1680;DHT22;838;51.794;12.258;2023-04-10T15:47:37;17.40;1.00
1680;DHT22;838;51.794;12.258;2023-04-10T15:50:03;17.40;1.00
1680;DHT22;838;51.794;12.258;2023-04-10T15:52:29;17.30;1.00
1680;DHT22;838;51.794;12.258;2023-04-10T15:54:57;17.10;1.00
1680;DHT22;838;51.794;12.258;2023-04-10T15:57:22;17.10;1.00
1680;DHT22;838;51.794;12.258;2023-04-10T15:59:51;17.00;1.00
1680;DHT22;838;51.794;12.258;2023-04-10T16:02:22;17.00;1.00
1680;DHT22;838;51.794;12.258;2023-04-10T16:04:48;17.00;1.00
1680;DHT22;838;51.794;12.258;2023-04-10T16:07:14;17.00;1.00
1680;DHT22;838;51.794;12.258;2023-04-10T16:09:40;16.90;1.00
1680;DHT22;838;51.794;12.258;2023-04-10T16:12:06;16.90;1.00
1680;DHT22;838;51.794;12.258;2023-04-10T16:14:31;16.90;1.00
1680;DHT22;838;51.794;12.258;2023-04-10T16:16:57;17.00;1.00
1680;DHT22;838;51.794;12.258;2023-04-10T16:19:23;17.00;1.00
1680;DHT22;838;51.794;12.258;2023-04-10T16:21:49;17.10;1.00
1680;DHT22;838;51.794;12.258;2023-04-10T16:24:15;17.10;1.00
1680;DHT22;838;51.794;12.258;2023-04-10T16:26:41;17.10;1.00
1680;DHT22;838;51.794;12.258;2023-04-10T16:29:06;17.10;1.00
1680;DHT22;838;51.794;12.258;2023-04-10T16:31:33;17.20;1.00
1680;DHT22;838;51.794;12.258;2023-04-10T16:33:59;17.20;1.00
1680;DHT22;838;51.794;12.258;2023-04-10T16:36:25;17.10;1.00
1680;DHT22;838;51.794;12.258;2023-04-10T16:38:51;17.00;1.00
1680;DHT22;838;51.794;12.258;2023-04-10T16:41:17;16.90;1.00
1680;DHT22;838;51.794;12.258;2023-04-10T16:43:45;16.80;1.00
1680;DHT22;838;51.794;12.258;2023-04-10T16:46:10;16.60;1.00
1680;DHT22;838;51.794;12.258;2023-04-10T16:48:37;16.60;1.00
1680;DHT22;838;51.794;12.258;2023-04-10T16:51:02;16.60;1.00
1680;DHT22;838;51.794;12.258;2023-04-10T16:53:31;16.60;1.00
1680;DHT22;838;51.794;12.258;2023-04-10T16:55:58;16.80;1.00
1680;DHT22;838;51.794;12.258;2023-04-10T16:58:24;16.80;1.00
1680;DHT22;838;51.794;12.258;2023-04-10T17:00:50;16.70;1.00
1680;DHT22;838;51.794;12.258;2023-04-10T17:03:16;16.70;1.00